createdAt,value
2022-12-04T00:01:22.033Z,27.03
2022-12-04T00:03:53.008Z,25.90
2022-12-04T00:06:23.861Z,28.70
2022-12-04T00:08:52.609Z,27.80
2022-12-04T00:11:22.575Z,28.20
2022-12-04T00:13:50.776Z,27.63
2022-12-04T00:16:22.542Z,27.00
2022-12-04T00:18:50.901Z,28.67
2022-12-04T00:21:19.924Z,28.17
2022-12-04T00:23:49.513Z,28.57
2022-12-04T00:26:19.227Z,28.10
2022-12-04T00:28:47.807Z,26.57
2022-12-04T00:31:19.249Z,27.93
2022-12-04T00:33:47.862Z,27.13
2022-12-04T00:36:18.540Z,27.63
2022-12-04T00:38:47.436Z,29.10
2022-12-04T00:41:19.042Z,28.80
2022-12-04T00:43:47.045Z,28.87
2022-12-04T00:46:15.700Z,29.17
2022-12-04T00:48:44.651Z,27.50
2022-12-04T00:51:14.381Z,27.17
2022-12-04T00:53:43.016Z,29.53
2022-12-04T00:56:14.461Z,29.40
2022-12-04T00:58:44.357Z,29.37
2022-12-04T01:01:14.854Z,27.67
2022-12-04T01:03:43.293Z,28.87
2022-12-04T01:06:19.758Z,29.67
2022-12-04T01:08:48.156Z,29.70
2022-12-04T01:11:16.513Z,28.80
2022-12-04T01:13:46.253Z,28.50
2022-12-04T01:16:18.337Z,29.27
2022-12-04T01:18:47.019Z,28.77
2022-12-04T01:21:15.008Z,26.63
2022-12-04T01:23:44.017Z,29.77
2022-12-04T01:26:12.166Z,31.30
2022-12-04T01:28:40.568Z,29.40
2022-12-04T01:31:13.100Z,29.60
2022-12-04T01:33:41.915Z,29.80
2022-12-04T01:36:12.623Z,29.20
2022-12-04T01:38:40.910Z,28.27
2022-12-04T01:41:10.888Z,30.13
2022-12-04T01:43:40.856Z,29.43
2022-12-04T01:46:10.941Z,30.87
2022-12-04T01:48:42.191Z,28.30
2022-12-04T01:51:15.245Z,29.47
2022-12-04T01:53:46.129Z,29.63
2022-12-04T01:56:16.176Z,27.80
2022-12-04T01:58:49.969Z,27.90
2022-12-04T02:01:19.740Z,27.00
2022-12-04T02:03:47.966Z,27.47
2022-12-04T02:06:15.970Z,26.73
2022-12-04T02:08:44.015Z,27.07
2022-12-04T02:11:22.765Z,26.07
2022-12-04T02:13:58.148Z,27.37
2022-12-04T02:16:35.470Z,26.10
2022-12-04T02:19:17.532Z,25.40
2022-12-04T02:21:48.209Z,26.23
2022-12-04T02:24:32.600Z,24.60
2022-12-04T02:27:04.221Z,25.87
2022-12-04T02:29:39.988Z,25.50
2022-12-04T02:32:16.470Z,25.50
2022-12-04T02:34:52.233Z,26.73
2022-12-04T02:37:28.753Z,24.10
2022-12-04T02:40:02.692Z,24.23
2022-12-04T02:42:39.863Z,25.40
2022-12-04T02:45:12.257Z,24.87
2022-12-04T02:47:43.013Z,24.43
2022-12-04T02:50:14.420Z,25.17
2022-12-04T02:52:46.973Z,27.23
2022-12-04T02:55:20.148Z,24.70
2022-12-04T02:57:52.703Z,24.07
2022-12-04T03:00:23.535Z,24.90
2022-12-04T03:02:57.800Z,23.30
2022-12-04T03:05:32.508Z,25.23
2022-12-04T03:08:06.783Z,26.07
2022-12-04T03:10:39.404Z,25.93
2022-12-04T03:13:10.939Z,26.37
2022-12-04T03:15:44.208Z,27.57
2022-12-04T03:18:17.750Z,25.00
2022-12-04T03:20:49.959Z,25.13
2022-12-04T03:23:23.765Z,25.10
2022-12-04T03:25:57.817Z,25.77
2022-12-04T03:28:32.555Z,24.97
2022-12-04T03:31:09.446Z,25.60
2022-12-04T03:33:42.225Z,27.00
2022-12-04T03:36:17.479Z,25.20
2022-12-04T03:38:51.966Z,26.57
2022-12-04T03:41:27.086Z,26.17
2022-12-04T03:44:02.576Z,24.47
2022-12-04T03:46:39.352Z,25.40
2022-12-04T03:49:16.365Z,28.57
2022-12-04T03:51:49.540Z,26.70
2022-12-04T03:54:20.236Z,26.43
2022-12-04T03:56:53.014Z,26.70
2022-12-04T03:59:25.008Z,25.33
2022-12-04T04:01:57.305Z,26.23
2022-12-04T04:04:31.772Z,24.60
2022-12-04T04:07:04.327Z,26.33
2022-12-04T04:09:36.852Z,25.97
2022-12-04T04:12:10.027Z,26.80
2022-12-04T04:15:01.109Z,26.57
2022-12-04T04:17:52.043Z,25.57
2022-12-04T04:20:53.036Z,25.53
2022-12-04T04:23:40.961Z,26.20
2022-12-04T04:26:10.348Z,23.27
2022-12-04T04:28:40.061Z,23.67
2022-12-04T04:31:14.873Z,31.95
2022-12-04T04:33:54.345Z,27.20
2022-12-04T04:36:28.028Z,27.17
2022-12-04T04:39:03.381Z,26.10
2022-12-04T04:41:40.391Z,26.17
2022-12-04T04:44:16.462Z,25.37
2022-12-04T04:46:49.315Z,27.00
2022-12-04T04:49:20.381Z,27.33
2022-12-04T04:51:48.601Z,25.90
2022-12-04T04:54:18.780Z,24.67
2022-12-04T04:57:28.325Z,25.90
2022-12-04T04:59:56.670Z,27.00
2022-12-04T05:02:27.283Z,26.07
2022-12-04T05:04:57.425Z,23.97
2022-12-04T05:07:25.420Z,27.03
2022-12-04T05:09:53.690Z,26.30
2022-12-04T05:12:22.041Z,25.63
2022-12-04T05:14:50.117Z,26.03
2022-12-04T05:17:18.651Z,25.47
2022-12-04T05:19:56.671Z,26.27
2022-12-04T05:22:29.638Z,26.47
2022-12-04T05:24:57.629Z,26.03
2022-12-04T05:27:27.095Z,26.87
2022-12-04T05:29:56.261Z,25.90
2022-12-04T05:32:26.561Z,25.43
2022-12-04T05:34:56.433Z,24.67
2022-12-04T05:37:26.633Z,26.13
2022-12-04T05:39:55.218Z,26.93
2022-12-04T05:42:23.662Z,26.47
2022-12-04T05:44:51.661Z,27.83
2022-12-04T05:47:19.725Z,26.63
2022-12-04T05:49:47.736Z,25.97
2022-12-04T05:52:15.800Z,24.43
2022-12-04T05:54:45.235Z,27.00
2022-12-04T05:57:13.242Z,27.20
2022-12-04T05:59:41.285Z,25.50
2022-12-04T06:02:09.331Z,25.37
2022-12-04T06:04:38.597Z,25.50
2022-12-04T06:07:06.853Z,25.90
2022-12-04T06:09:34.857Z,27.60
2022-12-04T06:12:05.139Z,25.57
2022-12-04T06:14:39.076Z,25.97
2022-12-04T06:17:07.543Z,26.50
2022-12-04T06:19:35.545Z,25.87
2022-12-04T06:22:03.642Z,25.23
2022-12-04T06:24:31.845Z,25.60
2022-12-04T06:29:50.382Z,25.87
2022-12-04T06:32:21.749Z,25.23
2022-12-04T06:34:52.583Z,25.07
2022-12-04T06:37:21.110Z,25.77
2022-12-04T06:39:49.192Z,25.07
2022-12-04T06:42:17.263Z,25.63
2022-12-04T06:44:45.248Z,24.93
2022-12-04T06:47:14.602Z,25.37
2022-12-04T06:49:42.588Z,26.20
2022-12-04T06:52:10.592Z,24.53
2022-12-04T06:54:38.730Z,26.33
2022-12-04T06:57:06.824Z,26.17
2022-12-04T06:59:34.789Z,24.63
2022-12-04T07:02:02.898Z,24.63
2022-12-04T07:04:32.337Z,24.87
2022-12-04T07:07:00.357Z,24.07
2022-12-04T07:09:28.389Z,26.47
2022-12-04T07:11:56.414Z,25.20
2022-12-04T07:14:24.404Z,24.90
2022-12-04T07:16:52.484Z,25.33
2022-12-04T07:19:20.642Z,24.60
2022-12-04T07:21:50.028Z,26.77
2022-12-04T07:24:18.428Z,25.80
2022-12-04T07:26:47.070Z,25.37
2022-12-04T07:29:15.052Z,25.73
2022-12-04T07:31:44.388Z,25.60
2022-12-04T07:34:12.644Z,25.77
2022-12-04T07:36:41.391Z,25.53
2022-12-04T07:39:10.745Z,25.30
2022-12-04T07:41:38.792Z,24.37
2022-12-04T07:44:08.993Z,25.00
2022-12-04T07:46:37.005Z,24.57
2022-12-04T07:49:05.029Z,27.37
2022-12-04T07:51:33.004Z,24.43
2022-12-04T07:54:04.109Z,25.83
2022-12-04T07:56:34.542Z,26.37
2022-12-04T07:59:03.103Z,25.60
2022-12-04T08:01:31.657Z,25.13
2022-12-04T08:04:01.357Z,26.60
2022-12-04T08:06:30.623Z,25.00
2022-12-04T08:09:02.400Z,26.50
2022-12-04T08:11:36.014Z,26.70
2022-12-04T08:14:08.706Z,26.60
2022-12-04T08:16:36.837Z,23.70
2022-12-04T08:19:05.433Z,23.43
2022-12-04T08:21:34.129Z,26.50
2022-12-04T08:24:02.513Z,25.77
2022-12-04T08:26:31.840Z,26.20
2022-12-04T08:29:02.408Z,26.60
2022-12-04T08:31:32.911Z,27.83
2022-12-04T08:34:03.059Z,26.10
2022-12-04T08:36:31.072Z,28.00
2022-12-04T08:38:59.306Z,27.50
2022-12-04T08:41:28.142Z,25.97
2022-12-04T08:43:57.813Z,27.47
2022-12-04T08:46:28.347Z,27.47
2022-12-04T08:48:56.985Z,25.77
2022-12-04T08:51:27.305Z,27.80
2022-12-04T08:53:56.913Z,27.77
2022-12-04T08:56:26.027Z,28.23
2022-12-04T08:58:56.049Z,28.33
2022-12-04T09:01:25.420Z,27.43
2022-12-04T09:03:55.389Z,27.30
2022-12-04T09:06:24.278Z,29.43
2022-12-04T09:08:54.995Z,28.13
2022-12-04T09:11:24.653Z,26.77
2022-12-04T09:13:53.318Z,29.17
2022-12-04T09:16:23.416Z,27.27
2022-12-04T09:18:51.766Z,28.70
2022-12-04T09:21:23.413Z,28.70
2022-12-04T09:23:52.904Z,29.03
2022-12-04T09:26:24.241Z,29.17
2022-12-04T09:28:53.168Z,27.43
2022-12-04T09:31:22.278Z,30.23
2022-12-04T09:33:50.853Z,28.50
2022-12-04T09:36:20.776Z,29.40
2022-12-04T09:38:50.595Z,26.90
2022-12-04T09:41:54.168Z,30.13
2022-12-04T09:44:25.592Z,27.87
2022-12-04T09:46:59.955Z,30.47
2022-12-04T09:49:32.010Z,29.83
2022-12-04T09:52:04.736Z,29.57
2022-12-04T09:54:39.143Z,30.07
2022-12-04T09:57:15.352Z,29.33
2022-12-04T09:59:43.823Z,27.90
2022-12-04T10:02:27.440Z,30.37
2022-12-04T10:04:56.479Z,30.87
2022-12-04T10:07:30.828Z,29.83
2022-12-04T10:10:04.444Z,29.47
2022-12-04T10:12:41.710Z,30.00
2022-12-04T10:15:27.397Z,29.43
2022-12-04T10:18:11.627Z,28.77
2022-12-04T10:21:12.723Z,27.13
2022-12-04T10:23:53.107Z,28.80
2022-12-04T10:26:26.807Z,27.57
2022-12-04T10:28:57.992Z,28.43
2022-12-04T10:31:27.566Z,27.23
2022-12-04T10:34:00.136Z,27.00
2022-12-04T10:36:32.597Z,27.93
2022-12-04T10:39:07.356Z,25.57
2022-12-04T10:41:43.743Z,26.47
2022-12-04T10:44:15.436Z,27.13
2022-12-04T10:46:46.284Z,27.83
2022-12-04T10:49:18.987Z,26.40
2022-12-04T10:51:47.861Z,27.27
2022-12-04T10:54:23.068Z,27.03
2022-12-04T10:56:52.585Z,26.90
2022-12-04T10:59:20.942Z,26.60
2022-12-04T11:01:50.321Z,25.13
2022-12-04T11:04:23.397Z,24.93
2022-12-04T11:06:52.602Z,26.90
2022-12-04T11:09:24.890Z,26.80
2022-12-04T11:11:53.559Z,26.73
2022-12-04T11:14:24.033Z,26.13
2022-12-04T11:17:02.729Z,25.60
2022-12-04T11:19:32.856Z,26.57
2022-12-04T11:22:06.898Z,26.03
2022-12-04T11:24:38.637Z,26.60
2022-12-04T11:27:08.527Z,25.03
2022-12-04T11:29:42.707Z,25.23
2022-12-04T11:32:21.648Z,24.33
2022-12-04T11:34:52.282Z,25.73
2022-12-04T11:37:23.515Z,24.87
2022-12-04T11:39:55.085Z,25.53
2022-12-04T11:42:26.741Z,26.77
2022-12-04T11:44:57.856Z,26.87
2022-12-04T11:47:28.506Z,25.47
2022-12-04T11:50:03.535Z,24.43
2022-12-04T11:52:45.768Z,24.73
2022-12-04T11:55:28.475Z,24.77
2022-12-04T11:58:12.033Z,22.40
2022-12-04T12:00:50.828Z,26.30
2022-12-04T12:03:28.507Z,25.40
2022-12-04T12:06:19.328Z,25.30
2022-12-04T12:09:09.601Z,24.87
2022-12-04T12:11:45.877Z,25.00
2022-12-04T12:14:21.202Z,25.70
2022-12-04T12:16:59.137Z,26.03
2022-12-04T12:20:00.650Z,26.47
2022-12-04T12:22:53.741Z,26.00
2022-12-04T12:25:25.712Z,24.77
2022-12-04T12:28:12.633Z,25.87
2022-12-04T12:30:52.774Z,26.13
2022-12-04T12:33:24.118Z,24.67
2022-12-04T12:36:01.469Z,26.70
2022-12-04T12:38:35.128Z,25.30
2022-12-04T12:41:06.329Z,25.80
2022-12-04T12:43:39.215Z,26.13
2022-12-04T12:46:11.764Z,26.50
2022-12-04T12:48:47.674Z,25.47
2022-12-04T12:51:30.179Z,26.63
2022-12-04T12:54:10.257Z,25.37
2022-12-04T12:56:47.784Z,26.23
2022-12-04T12:59:21.932Z,26.30
2022-12-04T13:02:00.329Z,25.13
2022-12-04T13:04:36.061Z,26.63
2022-12-04T13:07:21.891Z,25.50
2022-12-04T13:09:54.903Z,25.53
2022-12-04T13:12:24.794Z,25.20
2022-12-04T13:14:54.167Z,24.63
2022-12-04T13:17:29.548Z,24.73
2022-12-04T13:20:03.113Z,24.80
2022-12-04T13:22:39.665Z,24.07
2022-12-04T13:25:21.699Z,24.57
2022-12-04T13:28:02.644Z,24.13
2022-12-04T13:30:41.558Z,23.50
2022-12-04T13:33:51.200Z,23.17
2022-12-04T13:36:32.437Z,24.27
2022-12-04T13:39:23.476Z,23.40
2022-12-04T13:41:59.051Z,23.20
2022-12-04T13:44:28.182Z,22.80
2022-12-04T13:47:01.405Z,22.27
2022-12-04T13:49:31.657Z,22.53
2022-12-04T13:52:02.480Z,23.10
2022-12-04T13:54:33.145Z,23.70
2022-12-04T13:57:20.907Z,22.03
2022-12-04T13:59:50.063Z,21.77
2022-12-04T14:02:27.661Z,20.97
2022-12-04T14:04:59.828Z,21.60
2022-12-04T14:07:31.801Z,21.33
2022-12-04T14:10:08.278Z,20.43
2022-12-04T14:12:40.233Z,21.20
2022-12-04T14:15:09.933Z,20.70
2022-12-04T14:17:41.030Z,20.67
2022-12-04T14:20:24.728Z,21.70
2022-12-04T14:22:52.756Z,21.20
2022-12-04T14:25:26.876Z,20.93
2022-12-04T14:27:55.325Z,20.17
2022-12-04T14:30:29.471Z,20.60
2022-12-04T14:33:09.894Z,19.33
2022-12-04T14:35:46.865Z,20.57
2022-12-04T14:38:21.616Z,20.67
2022-12-04T14:40:52.848Z,21.03
2022-12-04T14:43:23.784Z,20.47
2022-12-04T14:45:56.744Z,20.30
2022-12-04T14:48:34.548Z,21.60
2022-12-04T14:51:11.993Z,21.23
2022-12-04T14:53:47.189Z,17.87
2022-12-04T14:56:38.604Z,20.93
2022-12-04T14:59:12.418Z,19.77
2022-12-04T15:01:40.705Z,20.37
2022-12-04T15:04:24.714Z,20.33
2022-12-04T15:06:59.672Z,19.90
2022-12-04T15:09:43.410Z,20.20
2022-12-04T15:12:37.029Z,20.10
2022-12-04T15:15:14.686Z,19.60
2022-12-04T15:17:42.776Z,19.87
2022-12-04T15:20:17.774Z,20.37
2022-12-04T15:22:46.221Z,19.47
2022-12-04T15:25:20.221Z,19.70
2022-12-04T15:27:49.378Z,20.00
2022-12-04T15:30:19.500Z,19.93
2022-12-04T15:32:49.397Z,20.37
2022-12-04T15:35:23.941Z,21.07
2022-12-04T15:37:52.175Z,20.97
2022-12-04T15:40:23.028Z,20.03
2022-12-04T15:42:51.404Z,20.70
2022-12-04T15:45:26.012Z,20.27
2022-12-04T15:47:55.832Z,21.40
2022-12-04T15:50:28.099Z,21.03
2022-12-04T15:53:01.815Z,19.90
2022-12-04T15:55:31.928Z,20.83
2022-12-04T15:58:02.010Z,21.13
2022-12-04T16:00:33.004Z,22.17
2022-12-04T16:03:02.081Z,21.20
2022-12-04T16:05:37.317Z,20.40
2022-12-04T16:08:24.694Z,21.33
2022-12-04T16:11:00.497Z,20.40
2022-12-04T16:13:31.047Z,21.27
2022-12-04T16:16:00.173Z,22.20
2022-12-04T16:18:29.597Z,19.30
2022-12-04T16:20:59.184Z,21.83
2022-12-04T16:23:27.576Z,21.43
2022-12-04T16:25:55.608Z,20.00
2022-12-04T16:28:23.633Z,21.57
2022-12-04T16:30:53.245Z,21.43
2022-12-04T16:33:21.312Z,21.20
2022-12-04T16:35:49.421Z,21.43
2022-12-04T16:38:19.024Z,21.13
2022-12-04T16:40:48.479Z,21.73
2022-12-04T16:43:18.329Z,21.23
2022-12-04T16:45:48.482Z,21.20
2022-12-04T16:48:16.696Z,19.53
2022-12-04T16:50:45.433Z,21.83
2022-12-04T16:53:18.813Z,21.00
2022-12-04T16:55:48.202Z,20.97
2022-12-04T16:58:17.360Z,21.03
2022-12-04T17:00:50.363Z,21.37
2022-12-04T17:03:21.649Z,19.63
2022-12-04T17:05:49.672Z,19.93
2022-12-04T17:08:19.151Z,20.73
2022-12-04T17:10:47.359Z,18.83
2022-12-04T17:13:15.422Z,20.03
2022-12-04T17:15:43.568Z,19.83
2022-12-04T17:18:16.359Z,21.70
2022-12-04T17:20:47.509Z,19.70
2022-12-04T17:23:15.737Z,20.37
2022-12-04T17:25:45.151Z,20.10
2022-12-04T17:28:13.316Z,21.17
2022-12-04T17:30:45.036Z,22.07
2022-12-04T17:33:13.103Z,21.83
2022-12-04T17:35:43.357Z,20.77
2022-12-04T17:38:11.722Z,20.27
2022-12-04T17:40:39.811Z,21.23
2022-12-04T17:43:09.352Z,20.53
2022-12-04T17:45:40.967Z,20.43
2022-12-04T17:48:09.012Z,21.17
2022-12-04T17:50:37.013Z,20.13
2022-12-04T17:53:05.028Z,20.33
2022-12-04T17:55:34.723Z,22.27
2022-12-04T17:58:02.771Z,21.63
2022-12-04T18:00:32.303Z,21.20
2022-12-04T18:03:00.451Z,22.10
2022-12-04T18:05:29.969Z,21.00
2022-12-04T18:07:58.163Z,23.03
2022-12-04T18:10:26.337Z,22.37
2022-12-04T18:12:54.326Z,21.63
2022-12-04T18:15:22.328Z,21.77
2022-12-04T18:17:51.692Z,21.27
2022-12-04T18:20:19.674Z,22.50
2022-12-04T18:22:47.712Z,22.63
2022-12-04T18:25:15.759Z,21.03
2022-12-04T18:27:43.852Z,21.53
2022-12-04T18:30:12.490Z,22.00
2022-12-04T18:32:40.555Z,21.70
2022-12-04T18:35:10.582Z,22.47
2022-12-04T18:37:40.123Z,22.13
2022-12-04T18:40:09.425Z,22.77
2022-12-04T18:42:37.682Z,22.23
2022-12-04T18:45:06.856Z,22.30
2022-12-04T18:47:36.473Z,23.80
2022-12-04T18:50:04.604Z,22.17
2022-12-04T18:52:38.358Z,23.00
2022-12-04T18:55:06.842Z,22.03
2022-12-04T18:57:34.843Z,22.33
2022-12-04T19:00:02.852Z,21.37
2022-12-04T19:02:30.875Z,21.93
2022-12-04T19:04:58.877Z,21.93
2022-12-04T19:07:26.894Z,22.77
2022-12-04T19:10:12.096Z,22.03
2022-12-04T19:12:40.257Z,22.70
2022-12-04T19:15:08.999Z,22.53
2022-12-04T19:17:36.996Z,21.93
2022-12-04T19:20:05.595Z,22.23
2022-12-04T19:22:33.609Z,21.70
2022-12-04T19:25:03.022Z,21.63
2022-12-04T19:27:31.056Z,20.67
2022-12-04T19:29:59.289Z,20.40
2022-12-04T19:32:27.503Z,21.20
2022-12-04T19:34:55.535Z,20.57
2022-12-04T19:37:23.528Z,21.17
2022-12-04T19:39:51.520Z,20.30
2022-12-04T19:42:20.871Z,20.63
2022-12-04T19:44:49.827Z,20.50
2022-12-04T19:47:18.757Z,21.13
2022-12-04T19:49:49.577Z,20.43
2022-12-04T19:52:17.864Z,21.77
2022-12-04T19:54:45.937Z,21.30
2022-12-04T19:57:14.750Z,20.33
2022-12-04T19:59:46.591Z,21.73
2022-12-04T20:02:15.494Z,19.10
2022-12-04T20:04:44.138Z,21.33
2022-12-04T20:07:12.183Z,21.37
2022-12-04T20:09:40.272Z,20.53
2022-12-04T20:12:08.689Z,19.53
2022-12-04T20:14:36.806Z,18.80
2022-12-04T20:17:06.232Z,19.77
2022-12-04T20:19:34.277Z,21.30
2022-12-04T20:22:02.521Z,20.40
2022-12-04T20:24:30.550Z,21.07
2022-12-04T20:26:58.708Z,19.77
2022-12-04T20:29:26.735Z,20.47
2022-12-04T20:31:54.729Z,19.60
2022-12-04T20:34:24.182Z,19.87
2022-12-04T20:36:52.235Z,20.33
2022-12-04T20:39:21.225Z,20.47
2022-12-04T20:41:49.679Z,19.70
2022-12-04T20:44:19.920Z,19.43
2022-12-04T20:46:48.824Z,19.43
2022-12-04T20:49:22.133Z,19.90
2022-12-04T20:51:53.710Z,20.20
2022-12-04T20:54:23.465Z,20.63
2022-12-04T20:56:53.074Z,20.83
2022-12-04T20:59:23.053Z,20.10
2022-12-04T21:01:52.479Z,20.13
2022-12-04T21:04:21.065Z,20.53
2022-12-04T21:06:49.647Z,20.13
2022-12-04T21:09:21.426Z,20.80
2022-12-04T21:11:51.309Z,20.30
2022-12-04T21:14:38.639Z,20.50
2022-12-04T21:17:09.376Z,19.80
2022-12-04T21:19:37.495Z,19.47
2022-12-04T21:22:05.559Z,21.23
2022-12-04T21:24:38.316Z,20.40
2022-12-04T21:27:06.805Z,20.43
2022-12-04T21:29:35.279Z,19.93
2022-12-04T21:32:03.500Z,20.80
2022-12-04T21:34:31.984Z,21.00
2022-12-04T21:37:00.318Z,19.50
2022-12-04T21:39:28.806Z,20.37
2022-12-04T21:42:15.521Z,20.90
2022-12-04T21:44:43.628Z,19.50
2022-12-04T21:47:11.912Z,19.43
2022-12-04T21:49:40.204Z,20.53
2022-12-04T21:52:08.283Z,20.43
2022-12-04T21:54:36.493Z,20.93
2022-12-04T21:57:06.094Z,20.60
2022-12-04T21:59:34.198Z,20.10
2022-12-04T22:02:02.865Z,19.60
2022-12-04T22:04:31.131Z,19.93
2022-12-04T22:07:00.363Z,20.33
2022-12-04T22:09:28.569Z,19.63
2022-12-04T22:11:57.136Z,20.97
2022-12-04T22:14:26.610Z,21.20
2022-12-04T22:16:55.296Z,21.33
2022-12-04T22:19:23.770Z,20.60
2022-12-04T22:21:51.807Z,21.27
2022-12-04T22:24:20.090Z,20.97
2022-12-04T22:26:48.429Z,21.33
2022-12-04T22:29:48.704Z,19.97
2022-12-04T22:32:06.126Z,19.83
2022-12-04T22:34:34.308Z,20.67
2022-12-04T22:37:02.317Z,19.40
2022-12-04T22:39:30.271Z,19.80
2022-12-04T22:41:58.265Z,18.67
2022-12-04T22:44:26.325Z,20.03
2022-12-04T22:46:54.369Z,20.07
2022-12-04T22:49:23.889Z,19.30
2022-12-04T22:51:51.832Z,19.10
2022-12-04T22:54:19.859Z,18.27
2022-12-04T22:56:47.825Z,18.23
2022-12-04T22:59:15.815Z,17.17
2022-12-04T23:01:43.817Z,18.83
2022-12-04T23:04:11.805Z,18.30
2022-12-04T23:06:41.173Z,19.33
2022-12-04T23:09:12.821Z,18.80
2022-12-04T23:11:41.282Z,18.20
2022-12-04T23:14:12.519Z,19.77
2022-12-04T23:16:41.232Z,19.47
2022-12-04T23:19:11.876Z,20.53
2022-12-04T23:21:41.719Z,19.37
2022-12-04T23:24:10.485Z,20.23
2022-12-04T23:26:40.778Z,20.13
2022-12-04T23:29:29.676Z,20.07
2022-12-04T23:31:57.180Z,20.23
2022-12-04T23:34:25.557Z,20.20
2022-12-04T23:36:55.411Z,20.63
2022-12-04T23:39:23.551Z,19.93
2022-12-04T23:41:51.548Z,19.60
2022-12-04T23:44:19.557Z,19.63
2022-12-04T23:46:47.703Z,19.27
2022-12-04T23:49:15.795Z,20.07
2022-12-04T23:51:43.809Z,19.70
2022-12-04T23:54:13.178Z,18.03
2022-12-04T23:56:41.477Z,19.47
2022-12-04T23:59:09.448Z,19.27
